createdAt,value
2018-01-23T00:11:09.908Z,9.10
2018-01-23T00:13:38.940Z,9.00
2018-01-23T00:16:08.327Z,9.10
2018-01-23T00:18:38.066Z,9.00
2018-01-23T00:21:07.102Z,9.00
2018-01-23T00:23:36.491Z,9.00
2018-01-23T00:26:04.739Z,9.00
2018-01-23T00:28:33.018Z,9.00
2018-01-23T00:31:01.266Z,9.00
2018-01-23T00:36:00.536Z,9.00
2018-01-23T00:38:29.539Z,8.90
2018-01-23T00:40:57.763Z,8.90
2018-01-23T00:43:26.048Z,9.00
2018-01-23T00:53:29.699Z,9.00
2018-01-23T00:58:28.593Z,9.00
2018-01-23T01:00:57.951Z,9.00
2018-01-23T01:03:26.230Z,9.00
2018-01-23T01:05:54.474Z,9.00
2018-01-23T01:08:22.719Z,9.00
2018-01-23T01:10:52.502Z,9.00
2018-01-23T01:13:20.740Z,9.00
2018-01-23T01:15:48.994Z,9.00
2018-01-23T01:18:17.702Z,9.00
2018-01-23T01:20:46.136Z,9.00
2018-01-23T01:23:15.894Z,9.00
2018-01-23T01:30:43.508Z,9.00
2018-01-23T01:33:12.554Z,9.00
2018-01-23T01:35:41.543Z,9.00
2018-01-23T01:38:10.020Z,9.00
2018-01-23T01:40:38.283Z,9.00
2018-01-23T01:43:06.513Z,9.00
2018-01-23T01:45:34.751Z,8.90
2018-01-23T01:48:04.186Z,9.00
2018-01-23T01:53:03.030Z,8.90
2018-01-23T01:55:32.264Z,8.80
2018-01-23T01:58:00.910Z,8.90
2018-01-23T02:02:59.434Z,8.90
2018-01-23T02:07:57.892Z,9.00
2018-01-23T02:10:27.292Z,8.90
2018-01-23T02:12:56.287Z,9.00
2018-01-23T02:15:24.520Z,9.00
2018-01-23T02:17:53.548Z,9.00
2018-01-23T02:25:20.768Z,8.90
2018-01-23T02:30:18.888Z,9.00
2018-01-23T02:32:47.195Z,9.00
2018-01-23T02:35:15.458Z,9.00
2018-01-23T02:37:44.474Z,9.00
2018-01-23T02:40:13.514Z,9.00
2018-01-23T02:42:43.266Z,8.90
2018-01-23T02:45:11.512Z,8.90
2018-01-23T02:50:09.635Z,8.90
2018-01-23T02:57:37.240Z,8.90
2018-01-23T03:00:05.574Z,8.90
2018-01-23T03:02:33.887Z,8.80
2018-01-23T03:05:02.120Z,8.90
2018-01-23T03:07:30.360Z,8.90
2018-01-23T03:09:58.647Z,8.80
2018-01-23T03:12:26.895Z,8.90
2018-01-23T03:14:56.274Z,8.90
2018-01-23T03:17:24.928Z,8.90
2018-01-23T03:19:53.178Z,8.90
2018-01-23T03:22:22.912Z,8.90
2018-01-23T03:27:21.794Z,8.90
2018-01-23T03:32:20.722Z,9.00
2018-01-23T03:37:19.199Z,8.90
2018-01-23T03:39:47.592Z,8.90
2018-01-23T03:42:17.342Z,9.00
2018-01-23T03:44:45.605Z,9.00
2018-01-23T03:47:13.892Z,8.90
2018-01-23T03:49:42.115Z,9.00
2018-01-23T03:52:11.851Z,9.00
2018-01-23T03:54:40.134Z,9.00
2018-01-23T03:57:08.384Z,9.00
2018-01-23T03:59:36.607Z,9.00
2018-01-23T04:02:04.907Z,8.90
2018-01-23T04:04:33.136Z,8.90
2018-01-23T04:07:02.877Z,8.90
2018-01-23T04:09:31.155Z,8.90
2018-01-23T04:11:59.790Z,8.90
2018-01-23T04:16:57.936Z,8.90
2018-01-23T04:19:27.308Z,8.90
2018-01-23T04:26:55.272Z,8.90
2018-01-23T04:29:24.268Z,8.90
2018-01-23T04:31:52.542Z,8.90
2018-01-23T04:34:21.552Z,8.90
2018-01-23T04:36:49.784Z,8.90
2018-01-23T04:39:18.455Z,8.90
2018-01-23T04:41:46.726Z,8.80
2018-01-23T04:44:16.475Z,8.80
2018-01-23T04:49:15.044Z,8.80
2018-01-23T04:54:13.547Z,8.70
2018-01-23T04:56:41.779Z,8.70
2018-01-23T04:59:10.784Z,8.60
2018-01-23T05:01:40.273Z,8.70
2018-01-23T05:04:08.865Z,8.70
2018-01-23T05:06:37.100Z,8.70
2018-01-23T05:09:05.376Z,8.70
2018-01-23T05:11:33.640Z,8.70
2018-01-23T05:14:13.909Z,8.70
2018-01-23T05:19:11.834Z,8.70
2018-01-23T05:24:10.328Z,8.60
2018-01-23T05:26:38.583Z,8.60
2018-01-23T05:31:36.739Z,8.70
2018-01-23T05:34:05.369Z,8.60
2018-01-23T05:36:34.450Z,8.60
2018-01-23T05:41:32.536Z,8.60
2018-01-23T05:44:00.821Z,8.60
2018-01-23T05:51:29.164Z,8.60
2018-01-23T05:53:57.396Z,8.60
2018-01-23T05:56:27.136Z,8.70
2018-01-23T05:58:55.405Z,8.70
2018-01-23T06:01:23.647Z,8.70
2018-01-23T06:03:51.897Z,8.70
2018-01-23T06:06:20.222Z,8.70
2018-01-23T06:08:48.476Z,8.70
2018-01-23T06:11:16.711Z,8.60
2018-01-23T06:13:44.990Z,8.60
2018-01-23T06:16:13.235Z,8.70
2018-01-23T06:21:12.494Z,8.60
2018-01-23T06:23:42.167Z,8.70
2018-01-23T06:26:10.794Z,8.70
2018-01-23T06:28:39.068Z,8.70
2018-01-23T06:31:07.308Z,8.70
2018-01-23T06:33:35.539Z,8.60
2018-01-23T06:36:04.944Z,8.60
2018-01-23T06:38:33.189Z,8.60
2018-01-23T06:41:02.184Z,8.60
2018-01-23T06:43:32.146Z,8.60
2018-01-23T06:46:01.894Z,8.60
2018-01-23T06:48:30.519Z,8.60
2018-01-23T06:50:58.790Z,8.60
2018-01-23T06:53:27.783Z,8.60
2018-01-23T06:58:27.388Z,8.60
2018-01-23T07:00:56.027Z,8.50
2018-01-23T07:03:24.272Z,8.50
2018-01-23T07:08:22.480Z,8.50
2018-01-23T07:10:50.704Z,8.60
2018-01-23T07:13:18.988Z,8.60
2018-01-23T07:15:47.287Z,8.60
2018-01-23T07:18:15.526Z,8.50
2018-01-23T07:20:44.928Z,8.50
2018-01-23T07:23:13.175Z,8.50
2018-01-23T07:25:42.168Z,8.50
2018-01-23T07:28:10.451Z,8.50
2018-01-23T07:30:38.696Z,8.40
2018-01-23T07:38:07.279Z,8.50
2018-01-23T07:43:17.998Z,8.50
2018-01-23T07:45:46.228Z,8.50
2018-01-23T07:48:14.526Z,8.50
2018-01-23T07:50:44.267Z,8.50
2018-01-23T07:53:12.504Z,8.50
2018-01-23T07:55:40.786Z,8.60
2018-01-23T07:58:09.028Z,8.60
2018-01-23T08:00:37.283Z,8.70
2018-01-23T08:03:05.544Z,8.70
2018-01-23T08:05:34.176Z,8.70
2018-01-23T08:08:03.559Z,8.80
2018-01-23T08:10:31.852Z,8.80
2018-01-23T08:13:00.092Z,8.80
2018-01-23T08:15:28.324Z,8.80
2018-01-23T08:22:55.922Z,8.90
2018-01-23T08:25:24.184Z,8.90
2018-01-23T08:27:53.203Z,9.00
2018-01-23T08:30:22.226Z,8.90
2018-01-23T08:35:20.369Z,9.00
2018-01-23T08:37:48.615Z,9.00
2018-01-23T08:40:18.127Z,9.00
2018-01-23T08:42:47.543Z,9.10
2018-01-23T08:45:15.777Z,9.10
2018-01-23T08:50:13.518Z,9.00
2018-01-23T08:52:41.743Z,9.00
2018-01-23T08:55:10.016Z,9.10
2018-01-23T08:57:38.277Z,9.10
2018-01-23T09:00:07.678Z,9.10
2018-01-23T09:02:36.725Z,9.10
2018-01-23T09:05:04.953Z,9.10
2018-01-23T09:07:35.900Z,9.10
2018-01-23T09:10:04.174Z,9.10
2018-01-23T09:15:02.297Z,9.10
2018-01-23T09:20:00.380Z,9.30
2018-01-23T09:22:28.715Z,9.20
2018-01-23T09:24:56.962Z,9.30
2018-01-23T09:29:55.572Z,9.40
2018-01-23T09:32:23.838Z,9.40
2018-01-23T09:34:53.575Z,9.40
2018-01-23T09:37:21.852Z,9.50
2018-01-23T09:39:50.096Z,9.50
2018-01-23T09:42:18.354Z,9.40
2018-01-23T09:44:46.627Z,9.40
2018-01-23T09:47:14.852Z,9.40
2018-01-23T09:52:14.080Z,9.50
2018-01-23T09:54:42.325Z,9.60
2018-01-23T09:57:10.562Z,9.60
2018-01-23T09:59:40.342Z,9.70
2018-01-23T10:02:08.591Z,9.70
2018-01-23T10:04:36.824Z,9.80
2018-01-23T10:07:05.080Z,9.80
2018-01-23T10:09:34.816Z,9.80
2018-01-23T10:12:03.044Z,10.00
2018-01-23T10:14:31.308Z,10.10
2018-01-23T10:16:59.945Z,10.10
2018-01-23T10:21:58.061Z,10.10
2018-01-23T10:24:26.295Z,10.00
2018-01-23T10:26:54.530Z,9.90
2018-01-23T10:31:53.812Z,10.00
2018-01-23T10:34:22.032Z,10.00
2018-01-23T10:36:50.364Z,10.10
2018-01-23T10:39:18.591Z,10.20
2018-01-23T10:41:46.846Z,10.30
2018-01-23T10:44:16.241Z,10.40
2018-01-23T10:46:45.232Z,10.50
2018-01-23T10:51:43.343Z,10.50
2018-01-23T10:54:11.996Z,10.50
2018-01-23T10:56:41.712Z,10.50
2018-01-23T10:59:09.971Z,10.50
2018-01-23T11:04:09.970Z,10.70
2018-01-23T11:06:38.281Z,10.70
2018-01-23T11:09:07.333Z,10.70
2018-01-23T11:11:35.626Z,10.70
2018-01-23T11:14:05.449Z,10.80
2018-01-23T11:19:03.978Z,10.80
2018-01-23T11:21:32.204Z,10.70
2018-01-23T11:24:01.976Z,10.60
2018-01-23T11:26:30.204Z,10.50
2018-01-23T11:28:58.447Z,10.50
2018-01-23T11:31:26.701Z,10.50
2018-01-23T11:36:24.784Z,10.50
2018-01-23T11:38:53.063Z,10.50
2018-01-23T11:41:21.684Z,10.50
2018-01-23T11:43:49.922Z,10.50
2018-01-23T11:48:48.087Z,10.50
2018-01-23T11:53:45.824Z,10.50
2018-01-23T12:01:13.904Z,10.60
2018-01-23T12:03:42.154Z,10.60
2018-01-23T12:08:39.859Z,10.60
2018-01-23T12:11:08.088Z,10.70
2018-01-23T12:13:36.321Z,10.70
2018-01-23T12:16:05.360Z,10.70
2018-01-23T12:21:03.068Z,10.80
2018-01-23T12:26:01.558Z,10.90
2018-01-23T12:28:29.786Z,10.90
2018-01-23T12:30:58.054Z,11.00
2018-01-23T12:33:27.048Z,11.10
2018-01-23T12:35:55.295Z,11.10
2018-01-23T12:38:23.572Z,11.20
2018-01-23T12:40:51.808Z,11.50
2018-01-23T12:43:20.064Z,11.50
2018-01-23T12:45:49.852Z,11.60
2018-01-23T12:48:18.126Z,11.70
2018-01-23T12:53:16.287Z,12.10
2018-01-23T12:58:14.767Z,12.40
2018-01-23T13:00:43.650Z,12.50
2018-01-23T13:03:13.397Z,12.70
2018-01-23T13:05:41.618Z,12.70
2018-01-23T13:10:39.724Z,12.70
2018-01-23T13:13:07.952Z,13.10
2018-01-23T13:15:36.984Z,14.10
2018-01-23T13:18:05.207Z,15.50
2018-01-23T13:23:03.356Z,17.90
2018-01-23T13:25:31.575Z,18.20
2018-01-23T13:27:59.812Z,18.70
2018-01-23T13:30:28.103Z,18.60
2018-01-23T13:32:56.328Z,17.70
2018-01-23T13:35:26.070Z,17.10
2018-01-23T13:37:54.649Z,16.60
2018-01-23T13:40:22.920Z,16.00
2018-01-23T13:42:51.175Z,15.70
2018-01-23T13:45:19.521Z,15.20
2018-01-23T13:52:47.558Z,14.10
2018-01-23T13:55:16.973Z,14.10
2018-01-23T13:57:47.176Z,13.90
2018-01-23T14:01:42.426Z,13.60
2018-01-23T14:04:11.092Z,13.20
2018-01-23T14:06:40.304Z,13.00
2018-01-23T14:09:09.652Z,12.80
2018-01-23T14:11:37.916Z,12.70
2018-01-23T14:14:06.140Z,12.40
2018-01-23T14:16:34.376Z,12.40
2018-01-23T14:19:04.149Z,12.20
2018-01-23T14:21:32.392Z,12.20
2018-01-23T14:24:00.616Z,12.30
2018-01-23T14:28:59.091Z,12.20
2018-01-23T14:33:57.576Z,12.10
2018-01-23T14:38:56.752Z,12.00
2018-01-23T14:41:25.032Z,12.00
2018-01-23T14:43:53.260Z,12.00
2018-01-23T14:46:21.483Z,11.90
2018-01-23T14:48:51.274Z,11.80
2018-01-23T14:53:49.379Z,11.70
2018-01-23T14:56:17.660Z,11.60
2018-01-23T14:58:46.654Z,11.60
2018-01-23T15:01:16.032Z,11.50
2018-01-23T15:03:44.301Z,11.60
2018-01-23T15:11:13.071Z,11.50
2018-01-23T15:13:41.299Z,11.40
2018-01-23T15:18:40.524Z,11.50
2018-01-23T15:21:08.753Z,11.50
2018-01-23T15:23:36.972Z,11.40
2018-01-23T15:31:04.989Z,11.30
2018-01-23T15:33:33.252Z,11.30
2018-01-23T15:36:01.486Z,11.30
2018-01-23T15:38:30.481Z,11.30
2018-01-23T15:40:59.863Z,11.30
2018-01-23T15:43:28.091Z,11.30
2018-01-23T15:45:56.320Z,11.30
2018-01-23T15:55:52.959Z,11.30
2018-01-23T15:58:22.320Z,11.30
2018-01-23T16:00:50.555Z,11.30
2018-01-23T16:05:48.687Z,11.30
2018-01-23T16:08:16.916Z,11.20
2018-01-23T16:10:45.179Z,11.30
2018-01-23T16:13:13.412Z,11.30
2018-01-23T16:15:43.135Z,11.30
2018-01-23T16:20:41.248Z,11.30
2018-01-23T16:23:09.473Z,11.30
2018-01-23T16:25:37.768Z,11.20
2018-01-23T16:28:06.014Z,11.20
2018-01-23T16:30:34.258Z,11.10
2018-01-23T16:33:02.524Z,11.20
2018-01-23T16:40:30.328Z,11.20
2018-01-23T16:55:25.891Z,11.20
2018-01-23T16:57:54.899Z,11.10
2018-01-23T17:00:23.554Z,11.10
2018-01-23T17:02:51.788Z,11.10
2018-01-23T17:07:20.260Z,11.10
2018-01-23T17:09:48.491Z,11.00
2018-01-23T17:12:16.712Z,11.00
2018-01-23T17:14:46.495Z,11.00
2018-01-23T17:17:15.888Z,11.00
2018-01-23T17:19:44.109Z,11.00
2018-01-23T17:22:13.142Z,11.00
2018-01-23T17:27:10.836Z,11.10
2018-01-23T17:32:08.555Z,11.10
2018-01-23T17:34:36.812Z,11.10
2018-01-23T17:37:05.112Z,11.10
2018-01-23T17:39:33.392Z,11.10
2018-01-23T17:42:01.618Z,11.00
2018-01-23T17:44:29.940Z,11.00
2018-01-23T17:46:58.168Z,11.00
2018-01-23T17:49:26.392Z,10.90
2018-01-23T17:51:54.657Z,10.90
2018-01-23T17:59:21.823Z,10.90
2018-01-23T18:01:50.051Z,11.00
2018-01-23T18:04:18.300Z,10.90
2018-01-23T18:06:47.337Z,11.00
2018-01-23T18:11:46.547Z,11.00
2018-01-23T18:14:14.814Z,11.00
2018-01-23T18:16:43.484Z,11.10
2018-01-23T18:19:11.749Z,11.10
2018-01-23T18:21:40.756Z,11.10
2018-01-23T18:24:09.739Z,11.10
2018-01-23T18:26:37.960Z,11.10
2018-01-23T18:29:07.384Z,11.00
2018-01-23T18:31:35.637Z,10.90
2018-01-23T18:34:03.966Z,11.00
2018-01-23T18:36:32.255Z,11.00
2018-01-23T18:39:00.476Z,11.00
2018-01-23T18:43:58.975Z,11.00
2018-01-23T18:46:27.960Z,11.00
2018-01-23T18:48:56.175Z,10.90
2018-01-23T18:53:55.068Z,11.00
2018-01-23T18:56:24.411Z,10.90
2018-01-23T18:58:52.722Z,10.90
2018-01-23T19:01:21.035Z,11.00
2018-01-23T19:03:50.029Z,11.00
2018-01-23T19:06:19.068Z,11.10
2018-01-23T19:08:47.303Z,11.10
2018-01-23T19:11:15.565Z,11.10
2018-01-23T19:13:43.891Z,11.10
2018-01-23T19:16:12.491Z,11.10
2018-01-23T19:18:42.228Z,11.10
2018-01-23T19:21:10.526Z,11.00
2018-01-23T19:23:38.792Z,11.00
2018-01-23T19:28:38.028Z,11.00
2018-01-23T19:31:06.282Z,11.00
2018-01-23T19:33:34.589Z,10.90
2018-01-23T19:38:32.423Z,11.00
2018-01-23T19:46:00.391Z,11.30
2018-01-23T19:48:29.831Z,11.40
2018-01-23T19:50:59.274Z,11.50
2018-01-23T19:53:27.873Z,11.50
2018-01-23T19:55:57.604Z,11.60
2018-01-23T20:00:56.122Z,11.70
2018-01-23T20:03:24.386Z,11.70
2018-01-23T20:08:22.559Z,11.80
2018-01-23T20:10:51.535Z,11.80
2018-01-23T20:13:19.863Z,11.80
2018-01-23T20:15:48.121Z,11.80
2018-01-23T20:18:16.367Z,11.80
2018-01-23T20:20:44.624Z,11.80
2018-01-23T20:23:12.892Z,11.80
2018-01-23T20:25:41.152Z,11.80
2018-01-23T20:28:10.590Z,11.80
2018-01-23T20:30:39.629Z,11.80
2018-01-23T20:35:37.800Z,11.80
2018-01-23T20:40:35.568Z,11.80
2018-01-23T20:43:03.887Z,11.80
2018-01-23T20:45:32.137Z,11.80
2018-01-23T20:52:59.713Z,11.70
2018-01-23T20:55:27.931Z,11.70
2018-01-23T20:57:56.263Z,11.60
2018-01-23T21:00:24.523Z,11.70
2018-01-23T21:02:52.742Z,11.70
2018-01-23T21:10:21.139Z,11.60
2018-01-23T21:12:49.477Z,11.70
2018-01-23T21:15:18.907Z,11.70
2018-01-23T21:17:47.199Z,11.70
2018-01-23T21:20:15.902Z,11.70
2018-01-23T21:22:45.643Z,11.70
2018-01-23T21:25:13.915Z,11.70
2018-01-23T21:27:42.231Z,11.70
2018-01-23T21:32:41.454Z,11.80
2018-01-23T21:37:39.951Z,11.90
2018-01-23T21:40:08.243Z,11.90
2018-01-23T21:42:36.551Z,11.90
2018-01-23T21:45:05.907Z,11.90
2018-01-23T21:47:34.201Z,11.90
2018-01-23T21:50:03.232Z,11.90
2018-01-23T21:52:32.643Z,11.80
2018-01-23T21:55:00.856Z,11.80
2018-01-23T21:59:59.403Z,11.90
2018-01-23T22:04:57.504Z,12.00
2018-01-23T22:09:55.944Z,12.00
2018-01-23T22:14:54.279Z,12.10
2018-01-23T22:17:23.314Z,12.10
2018-01-23T22:19:51.576Z,12.20
2018-01-23T22:24:49.697Z,12.30
2018-01-23T22:32:18.407Z,12.30
2018-01-23T22:34:46.802Z,12.30
2018-01-23T22:37:16.554Z,12.30
2018-01-23T22:39:44.781Z,12.30
2018-01-23T22:44:43.277Z,12.30
2018-01-23T22:52:10.842Z,12.40
2018-01-23T22:54:40.203Z,12.40
2018-01-23T22:57:09.230Z,12.40
2018-01-23T22:59:37.447Z,12.50
2018-01-23T23:02:05.685Z,12.40
2018-01-23T23:07:03.811Z,12.50
2018-01-23T23:09:32.032Z,12.50
2018-01-23T23:12:01.048Z,12.50
2018-01-23T23:14:30.040Z,12.50
2018-01-23T23:16:58.264Z,12.60
2018-01-23T23:19:26.950Z,12.60
2018-01-23T23:21:55.186Z,12.60
2018-01-23T23:24:24.915Z,12.70
2018-01-23T23:29:23.412Z,12.60
2018-01-23T23:31:51.658Z,12.60
2018-01-23T23:34:20.191Z,12.70
2018-01-23T23:36:48.824Z,12.60
2018-01-23T23:41:47.344Z,12.70
2018-01-23T23:46:45.508Z,12.70
2018-01-23T23:49:13.768Z,12.70
2018-01-23T23:51:41.987Z,12.60
2018-01-23T23:54:10.212Z,12.50
2018-01-23T23:56:38.483Z,12.60
2018-01-23T23:59:08.215Z,12.50
